Time;durP1;ratioP1;P1;durP2;ratioP2;P2;SDS_P1;SDS_P2;PMS_P1;PMS_P2;Temp;Humidity;BMP_temperature;BMP_pressure;BME280_temperature;BME280_humidity;BME280_pressure;Samples;Min_cycle;Max_cycle;Signal;HPM_P1;HPM_P2
2022/03/18 00:01:51;;;;;;;13.93;5.30;;;;;;;3.40;100.00;103529.78;5044978;28;20102;-77
2022/03/18 00:04:17;;;;;;;14.50;5.68;;;;;;;3.43;100.00;103535.19;5072503;28;20112;-77
2022/03/18 00:06:42;;;;;;;23.00;6.45;;;;;;;3.30;100.00;103531.63;5044744;28;20475;-77
2022/03/18 00:09:08;;;;;;;15.00;5.97;;;;;;;3.27;100.00;103539.78;5043901;28;20037;-77
2022/03/18 00:11:33;;;;;;;16.27;5.57;;;;;;;3.31;100.00;103544.25;5044871;28;20033;-78
2022/03/18 00:14:02;;;;;;;24.42;5.15;;;;;;;3.30;100.00;103542.47;5044678;28;20390;-78
2022/03/18 00:16:28;;;;;;;14.90;4.43;;;;;;;3.12;100.00;103541.63;5051446;28;20059;-78
2022/03/18 00:18:55;;;;;;;12.07;3.90;;;;;;;2.97;100.00;103532.66;5052101;28;20083;-78
2022/03/18 00:21:21;;;;;;;11.45;4.10;;;;;;;3.08;100.00;103534.44;5046765;28;20029;-78
2022/03/18 00:23:47;;;;;;;14.23;4.10;;;;;;;3.05;100.00;103549.78;5026792;28;20041;-79
2022/03/18 00:26:12;;;;;;;18.40;4.25;;;;;;;3.10;100.00;103554.28;5067136;28;20044;-79
2022/03/18 00:28:39;;;;;;;13.68;4.35;;;;;;;3.04;100.00;103546.19;5051378;28;20049;-78
2022/03/18 00:31:08;;;;;;;13.27;4.50;;;;;;;3.06;100.00;103547.06;5046141;28;20473;-78
2022/03/18 00:33:34;;;;;;;11.23;3.63;;;;;;;2.84;100.00;103548.06;5033580;28;20037;-78
2022/03/18 00:36:01;;;;;;;15.75;4.40;;;;;;;2.76;100.00;103550.78;5047197;28;20182;-77
2022/03/18 00:38:27;;;;;;;8.27;3.88;;;;;;;2.71;100.00;103555.31;5029804;28;20021;-78
2022/03/18 00:40:56;;;;;;;17.48;3.85;;;;;;;2.73;100.00;103551.69;5027533;28;20030;-78
2022/03/18 00:43:22;;;;;;;13.32;4.05;;;;;;;2.77;100.00;103552.56;5063655;28;20034;-78
2022/03/18 00:45:47;;;;;;;12.02;4.30;;;;;;;2.72;100.00;103565.22;5075294;28;20035;-78
2022/03/18 00:53:42;;;;;;;8.20;3.60;;;;;;;2.70;100.00;103559.81;5047306;28;20037;-77
2022/03/18 00:56:07;;;;;;;9.13;3.70;;;;;;;2.72;100.00;103559.81;5045692;28;20044;-78
2022/03/18 00:58:33;;;;;;;12.15;3.80;;;;;;;2.62;100.00;103556.22;5049454;28;20112;-77
2022/03/18 01:00:58;;;;;;;12.35;4.30;;;;;;;2.56;100.00;103567.97;5048184;28;20041;-77
2022/03/18 01:03:23;;;;;;;13.10;4.07;;;;;;;2.54;100.00;103567.06;5048046;28;20037;-78
2022/03/18 01:05:49;;;;;;;9.20;4.25;;;;;;;2.51;100.00;103571.56;5075998;28;20041;-78
2022/03/18 01:08:14;;;;;;;10.93;4.07;;;;;;;2.48;100.00;103580.59;5049135;28;20040;-78
2022/03/18 01:10:40;;;;;;;12.15;4.93;;;;;;;2.44;100.00;103577.88;5045968;28;20026;-77
2022/03/18 01:13:05;;;;;;;11.93;5.07;;;;;;;2.50;100.00;103578.78;5047196;28;20044;-77
2022/03/18 01:15:31;;;;;;;12.18;4.93;;;;;;;2.45;100.00;103583.28;5045461;28;20138;-78
2022/03/18 01:17:57;;;;;;;11.23;4.70;;;;;;;2.45;100.00;103585.09;5056169;28;20412;-77
2022/03/18 01:20:22;;;;;;;14.15;5.07;;;;;;;2.51;100.00;103582.38;5049303;28;20041;-77
2022/03/18 01:22:48;;;;;;;11.63;4.68;;;;;;;2.59;100.00;103580.56;5033434;28;20175;-77
2022/03/18 01:25:13;;;;;;;22.83;5.10;;;;;;;2.40;100.00;103577.00;5047443;28;20078;-77
2022/03/18 01:27:39;;;;;;;15.13;4.65;;;;;;;2.41;100.00;103584.22;5046365;28;20722;-78
2022/03/18 01:30:05;;;;;;;18.30;4.82;;;;;;;2.28;100.00;103580.63;5043595;28;20556;-77
2022/03/18 01:32:33;;;;;;;12.07;5.13;;;;;;;2.28;100.00;103598.59;5045473;28;20032;-78
2022/03/18 01:34:58;;;;;;;12.32;5.13;;;;;;;2.24;100.00;103596.81;5046948;28;20041;-77
2022/03/18 01:37:23;;;;;;;13.30;4.53;;;;;;;2.22;100.00;103586.00;5048346;28;20118;-78
2022/03/18 01:39:49;;;;;;;11.50;4.90;;;;;;;2.15;100.00;103590.50;5054586;28;20083;-79
2022/03/18 01:42:14;;;;;;;12.73;4.95;;;;;;;2.16;100.00;103591.41;5030209;28;20033;-79
2022/03/18 01:44:41;;;;;;;14.45;4.10;;;;;;;2.07;100.00;103586.91;5050111;28;20087;-77
2022/03/18 01:47:10;;;;;;;14.73;4.40;;;;;;;2.02;100.00;103591.41;5046957;28;20102;-78
2022/03/18 01:49:37;;;;;;;14.10;4.53;;;;;;;2.11;100.00;103604.03;5044875;28;20071;-78
2022/03/18 01:52:04;;;;;;;14.68;3.90;;;;;;;2.06;100.00;103605.81;5050001;28;20021;-78
2022/03/18 01:54:47;;;;;;;11.18;4.15;;;;;;;2.07;100.00;103605.81;5042544;28;20041;-78
2022/03/18 01:57:26;;;;;;;12.85;5.32;;;;;;;1.92;100.00;103600.38;5047835;28;20044;-79
2022/03/18 01:59:52;;;;;;;10.90;4.53;;;;;;;1.87;100.00;103603.09;5046613;28;20025;-78
2022/03/18 02:02:18;;;;;;;8.07;4.05;;;;;;;1.86;100.00;103606.69;5043230;28;20064;-78
2022/03/18 02:04:45;;;;;;;11.80;4.10;;;;;;;1.81;100.00;103616.59;5049238;28;20063;-78
2022/03/18 02:07:11;;;;;;;12.38;4.80;;;;;;;1.76;100.00;103612.97;5056381;28;20021;-78
2022/03/18 02:09:39;;;;;;;14.30;5.30;;;;;;;1.71;100.00;103607.56;5049281;28;20469;-77
2022/03/18 02:12:06;;;;;;;11.25;4.72;;;;;;;1.70;100.00;103626.47;5063247;28;20028;-77
2022/03/18 02:14:37;;;;;;;18.00;5.35;;;;;;;1.64;100.00;103625.53;5048602;28;20518;-78
2022/03/18 02:17:05;;;;;;;11.70;4.60;;;;;;;1.74;100.00;103620.16;5082186;28;20029;-78
2022/03/18 02:19:31;;;;;;;10.65;4.70;;;;;;;1.75;100.00;103613.88;5050185;28;20068;-78
2022/03/18 02:21:58;;;;;;;15.55;4.40;;;;;;;1.64;100.00;103624.63;5043230;28;20047;-78
2022/03/18 02:24:24;;;;;;;13.02;4.47;;;;;;;1.60;100.00;103623.72;5065652;28;20048;-78
2022/03/18 02:26:54;;;;;;;10.73;4.55;;;;;;;1.64;100.00;103627.31;5046086;28;20053;-78
2022/03/18 02:29:22;;;;;;;10.05;4.18;;;;;;;1.76;100.00;103621.09;5060986;28;20047;-78
2022/03/18 02:31:47;;;;;;;15.63;4.63;;;;;;;1.77;100.00;103623.78;5053522;28;20415;-77
2022/03/18 02:34:13;;;;;;;14.15;4.30;;;;;;;1.69;100.00;103625.56;5052329;28;20033;-79
2022/03/18 02:36:38;;;;;;;8.73;4.65;;;;;;;1.58;100.00;103616.53;5068485;28;20103;-78
2022/03/18 02:39:04;;;;;;;9.45;4.00;;;;;;;1.35;100.00;103620.03;5051256;28;20037;-78
2022/03/18 02:41:30;;;;;;;9.68;4.38;;;;;;;1.13;100.00;103608.22;5078792;28;20040;-79
2022/03/18 02:43:56;;;;;;;13.00;4.68;;;;;;;0.98;100.00;103605.44;5053584;28;20539;-79
2022/03/18 02:46:21;;;;;;;9.52;4.82;;;;;;;0.87;100.00;103602.69;5076243;28;20378;-78
2022/03/18 02:48:47;;;;;;;8.85;4.85;;;;;;;1.10;100.00;103606.44;5080588;28;20029;-78
2022/03/18 02:51:13;;;;;;;9.38;4.95;;;;;;;1.24;100.00;103610.97;5057718;28;20036;-78
2022/03/18 02:53:39;;;;;;;9.27;3.92;;;;;;;1.31;100.00;103617.31;5076722;28;20037;-78
2022/03/18 02:56:05;;;;;;;13.98;5.72;;;;;;;1.10;100.00;103613.63;5052328;28;20043;-78
2022/03/18 02:58:31;;;;;;;11.38;4.78;;;;;;;1.20;100.00;103626.25;5051850;28;20388;-78
2022/03/18 03:00:56;;;;;;;13.70;5.53;;;;;;;1.05;100.00;103635.19;5055411;28;20150;-78
2022/03/18 03:03:22;;;;;;;8.80;4.68;;;;;;;0.97;100.00;103636.94;5048384;28;20042;-78
2022/03/18 03:08:32;;;;;;;14.60;4.43;;;;;;;0.92;100.00;103652.19;5042941;28;20056;-78
2022/03/18 03:10:58;;;;;;;12.73;4.70;;;;;;;0.95;100.00;103645.91;5049703;28;20090;-77
2022/03/18 03:13:24;;;;;;;10.20;4.38;;;;;;;1.01;100.00;103641.44;5046830;28;20125;-78
2022/03/18 03:15:50;;;;;;;14.55;5.07;;;;;;;1.07;100.00;103638.78;5029548;28;20034;-78
2022/03/18 03:18:15;;;;;;;16.85;5.13;;;;;;;1.15;100.00;103641.53;5067217;28;20032;-77
2022/03/18 03:20:41;;;;;;;12.38;5.18;;;;;;;1.27;100.00;103644.28;5070243;28;20588;-78
2022/03/18 03:23:06;;;;;;;16.27;5.32;;;;;;;1.35;100.00;103659.63;5049256;28;20120;-77
2022/03/18 03:25:32;;;;;;;16.08;4.68;;;;;;;1.28;100.00;103651.50;5071978;28;20021;-77
2022/03/18 03:27:57;;;;;;;11.15;4.32;;;;;;;0.97;100.00;103660.28;5052636;28;20086;-78
2022/03/18 03:30:23;;;;;;;8.90;4.07;;;;;;;0.74;100.00;103663.75;5056799;28;20044;-77
2022/03/18 03:32:49;;;;;;;11.13;4.22;;;;;;;0.67;100.00;103668.19;5047100;28;20489;-78
2022/03/18 03:35:15;;;;;;;13.48;4.63;;;;;;;0.76;100.00;103678.13;5046841;28;20128;-78
2022/03/18 03:37:42;;;;;;;15.00;4.50;;;;;;;0.91;100.00;103680.94;5081628;28;20044;-79
2022/03/18 03:40:08;;;;;;;13.05;4.57;;;;;;;0.68;100.00;103675.38;5048673;28;20033;-79
2022/03/18 03:42:34;;;;;;;13.05;4.63;;;;;;;0.64;100.00;103678.94;5052505;28;20033;-79
2022/03/18 03:45:00;;;;;;;10.95;4.50;;;;;;;0.67;100.00;103678.06;5049827;28;20040;-78
2022/03/18 03:47:25;;;;;;;6.63;4.22;;;;;;;0.72;100.00;103674.53;5063451;28;20030;-78
2022/03/18 03:49:51;;;;;;;11.30;4.65;;;;;;;0.86;100.00;103688.09;5047104;28;20033;-78
2022/03/18 03:52:17;;;;;;;14.70;4.93;;;;;;;0.97;100.00;103690.88;5051557;28;20049;-78
2022/03/18 03:54:42;;;;;;;13.70;5.15;;;;;;;0.91;100.00;103685.44;5031184;28;20056;-78
2022/03/18 03:57:08;;;;;;;16.80;5.13;;;;;;;0.69;100.00;103681.69;5058084;28;20036;-78
2022/03/18 03:59:34;;;;;;;16.73;4.63;;;;;;;0.65;100.00;103687.94;5068302;28;20036;-78
2022/03/18 04:02:02;;;;;;;27.10;4.93;;;;;;;0.62;100.00;103691.50;5044605;28;20037;-78
2022/03/18 04:04:28;;;;;;;13.68;5.15;;;;;;;0.55;100.00;103698.63;5043489;28;20049;-78
2022/03/18 04:06:53;;;;;;;11.52;4.78;;;;;;;0.52;100.00;103697.69;5042667;28;20057;-80
2022/03/18 04:09:19;;;;;;;11.90;5.32;;;;;;;0.83;100.00;103709.66;5037048;28;20407;-78
2022/03/18 04:11:44;;;;;;;9.90;4.47;;;;;;;0.96;100.00;103713.34;5051997;28;20047;-78
2022/03/18 04:14:10;;;;;;;12.77;4.93;;;;;;;0.75;100.00;103703.28;5045822;28;20033;-79
2022/03/18 04:16:35;;;;;;;11.23;4.85;;;;;;;0.57;100.00;103711.22;5043712;28;20033;-79
2022/03/18 04:19:03;;;;;;;22.38;5.05;;;;;;;0.57;100.00;103697.75;5061248;28;20512;-77
2022/03/18 04:21:28;;;;;;;16.15;5.22;;;;;;;0.64;100.00;103703.22;5045043;28;20048;-78
2022/03/18 04:23:54;;;;;;;16.15;4.95;;;;;;;0.75;100.00;103703.28;5044084;28;20030;-77
2022/03/18 04:26:19;;;;;;;11.70;4.63;;;;;;;0.82;100.00;103705.16;5046484;28;20104;-78
2022/03/18 04:28:45;;;;;;;15.88;4.95;;;;;;;0.83;100.00;103712.34;5046837;28;20443;-78
2022/03/18 04:31:10;;;;;;;10.80;4.95;;;;;;;0.67;100.00;103715.81;5046126;28;20108;-78
2022/03/18 04:33:36;;;;;;;16.58;4.80;;;;;;;0.29;100.00;103727.13;5044477;28;20083;-78
2022/03/18 04:36:01;;;;;;;14.77;5.03;;;;;;;0.28;100.00;103733.38;5044670;28;20052;-78
2022/03/18 04:38:27;;;;;;;12.73;4.72;;;;;;;0.18;100.00;103733.31;5046078;28;20452;-78
2022/03/18 04:40:52;;;;;;;22.90;5.07;;;;;;;0.38;100.00;103746.09;5030640;28;20037;-78
2022/03/18 04:43:17;;;;;;;9.65;4.47;;;;;;;0.50;100.00;103743.50;5047402;28;20485;-78
2022/03/18 04:45:44;;;;;;;18.25;5.70;;;;;;;0.31;100.00;103760.38;5045611;28;20037;-78
2022/03/18 04:48:10;;;;;;;16.20;4.93;;;;;;;0.22;100.00;103752.22;5046245;28;20033;-78
2022/03/18 04:50:35;;;;;;;12.88;4.50;;;;;;;0.17;100.00;103763.81;5049479;28;20100;-77
2022/03/18 04:53:00;;;;;;;12.35;4.75;;;;;;;0.15;100.00;103754.81;5076766;28;20120;-77
2022/03/18 04:55:26;;;;;;;51.45;35.60;;;;;;;0.39;100.00;103755.06;5063668;28;20033;-77
2022/03/18 04:57:51;;;;;;;14.65;5.15;;;;;;;0.33;100.00;103754.13;5074854;28;20122;-77
2022/03/18 05:00:20;;;;;;;10.25;4.80;;;;;;;0.31;100.00;103754.97;5055196;28;20036;-77
2022/03/18 05:02:46;;;;;;;12.45;5.03;;;;;;;0.38;100.00;103758.66;5030423;28;20048;-77
2022/03/18 05:05:11;;;;;;;15.23;4.82;;;;;;;0.49;100.00;103763.28;5040641;28;20388;-78
2022/03/18 05:07:41;;;;;;;10.80;4.68;;;;;;;0.39;100.00;103771.25;5044399;28;21779;-78
2022/03/18 05:10:08;;;;;;;11.75;4.28;;;;;;;0.48;100.00;103777.63;5042188;28;20041;-78
2022/03/18 05:12:34;;;;;;;13.27;4.65;;;;;;;0.17;100.00;103771.00;5048671;28;20025;-78
2022/03/18 05:15:00;;;;;;;12.40;4.78;;;;;;;0.20;100.00;103780.91;5049540;28;20108;-78
2022/03/18 05:17:25;;;;;;;10.35;5.07;;;;;;;0.15;100.00;103775.47;5043759;28;20041;-78
2022/03/18 05:19:50;;;;;;;12.70;4.85;;;;;;;0.03;100.00;103770.81;5075696;28;20369;-77
2022/03/18 05:22:16;;;;;;;9.50;5.00;;;;;;;0.10;100.00;103780.81;5068035;28;20025;-78
2022/03/18 05:24:41;;;;;;;15.57;4.63;;;;;;;0.05;100.00;103801.41;5043570;28;21231;-79
2022/03/18 05:27:07;;;;;;;12.88;4.97;;;;;;;0.05;100.00;103801.41;5045845;28;20037;-79
2022/03/18 05:29:33;;;;;;;17.17;5.30;;;;;;;-0.09;100.00;103808.41;5049264;28;20040;-79
2022/03/18 05:32:00;;;;;;;13.77;5.50;;;;;;;0.06;100.00;103803.19;5049675;28;20068;-78
2022/03/18 05:34:25;;;;;;;15.55;5.75;;;;;;;0.12;100.00;103805.97;5052700;28;20036;-78
2022/03/18 05:36:51;;;;;;;10.82;5.15;;;;;;;0.14;100.00;103827.53;5069344;28;20048;-78
2022/03/18 05:39:17;;;;;;;16.83;5.20;;;;;;;0.10;100.00;103814.91;5082703;28;20021;-79
2022/03/18 05:41:45;;;;;;;17.38;5.70;;;;;;;0.06;100.00;103813.97;5049332;28;20044;-79
2022/03/18 05:44:12;;;;;;;15.65;5.50;;;;;;;-0.04;100.00;103825.50;5058756;28;20089;-79
2022/03/18 05:46:38;;;;;;;12.98;6.43;;;;;;;-0.15;100.00;103811.00;5051511;28;20083;-79
2022/03/18 05:49:04;;;;;;;13.70;6.13;;;;;;;-0.11;100.00;103816.44;5058210;28;20037;-79
2022/03/18 05:51:30;;;;;;;10.23;5.30;;;;;;;0.01;100.00;103823.78;5076255;28;20060;-77
2022/03/18 05:53:55;;;;;;;24.95;5.85;;;;;;;-0.06;100.00;103820.09;5054456;28;20064;-78
2022/03/18 05:59:06;;;;;;;10.48;5.78;;;;;;;-0.08;100.00;103829.97;5048377;28;20493;-78
2022/03/18 06:01:37;;;;;;;18.60;7.00;;;;;;;-0.25;100.00;103829.69;5083697;28;20080;-76
2022/03/18 06:04:04;;;;;;;14.55;5.35;;;;;;;-0.28;100.00;103820.69;5054479;28;20123;-77
2022/03/18 06:06:29;;;;;;;11.45;5.43;;;;;;;-0.20;100.00;103827.06;5046606;28;20034;-77
2022/03/18 06:11:48;;;;;;;14.13;7.55;;;;;;;-0.14;100.00;103819.09;5084388;28;20043;-78
2022/03/18 06:14:14;;;;;;;30.90;7.80;;;;;;;-0.03;100.00;103821.94;5050657;28;20025;-78
2022/03/18 06:16:40;;;;;;;12.90;6.03;;;;;;;0.02;100.00;103820.22;5050083;28;20052;-77
2022/03/18 06:19:06;;;;;;;20.23;7.40;;;;;;;0.23;100.00;103818.66;5045585;28;20636;-78
2022/03/18 06:21:32;;;;;;;11.77;6.97;;;;;;;0.17;100.00;103822.19;5057286;28;20064;-78
2022/03/18 06:23:57;;;;;;;15.20;7.35;;;;;;;0.34;100.00;103836.78;5085366;28;20030;-77
2022/03/18 06:26:22;;;;;;;14.55;7.10;;;;;;;0.32;100.00;103851.13;5056550;28;20033;-78
2022/03/18 06:28:49;;;;;;;35.75;7.55;;;;;;;0.33;100.00;103852.94;5067455;28;20112;-78
2022/03/18 06:31:14;;;;;;;35.88;8.13;;;;;;;0.40;100.00;103853.91;5055508;28;20033;-77
2022/03/18 06:33:46;;;;;;;43.08;6.68;;;;;;;0.47;100.00;103866.56;5052277;28;20026;-77
2022/03/18 06:36:12;;;;;;;19.45;6.63;;;;;;;0.46;100.00;103868.38;5088647;28;20047;-77
2022/03/18 06:38:37;;;;;;;20.60;7.20;;;;;;;0.68;100.00;103864.13;5051246;28;20053;-78
2022/03/18 06:41:03;;;;;;;32.72;6.40;;;;;;;0.90;100.00;103867.97;5057428;28;20040;-77
2022/03/18 06:43:28;;;;;;;18.30;6.85;;;;;;;1.14;100.00;103870.88;5056991;28;20388;-78
2022/03/18 06:45:54;;;;;;;20.05;6.32;;;;;;;1.21;100.00;103864.63;5061235;28;20060;-78
2022/03/18 06:48:19;;;;;;;22.85;7.70;;;;;;;1.15;100.00;103873.59;5069049;28;20037;-78
2022/03/18 06:50:45;;;;;;;10.98;6.28;;;;;;;1.29;100.00;103873.69;5059363;28;20033;-78
2022/03/18 06:53:10;;;;;;;19.25;8.35;;;;;;;1.45;100.00;103881.03;5067595;28;20090;-77
2022/03/18 06:55:36;;;;;;;15.88;6.88;;;;;;;1.83;100.00;103877.69;5068058;28;20047;-78
2022/03/18 06:58:02;;;;;;;19.73;7.20;;;;;;;2.05;100.00;103872.47;5064521;28;20164;-77
2022/03/18 07:00:27;;;;;;;19.25;7.93;;;;;;;2.19;100.00;103881.50;5063031;28;20016;-77
2022/03/18 07:02:54;;;;;;;29.85;11.05;;;;;;;2.24;100.00;103884.25;5056445;28;20037;-78
2022/03/18 07:05:20;;;;;;;18.50;10.15;;;;;;;2.52;100.00;103879.84;5082844;28;20029;-78
2022/03/18 07:07:46;;;;;;;22.25;12.23;;;;;;;2.50;100.00;103876.25;5085315;28;20075;-78
2022/03/18 07:10:12;;;;;;;29.27;12.90;;;;;;;2.81;100.00;103880.88;5048425;28;20047;-78
2022/03/18 07:12:38;;;;;;;25.63;13.43;;;;;;;3.16;100.00;103891.72;5072653;28;20025;-80
2022/03/18 07:15:05;;;;;;;31.13;14.80;;;;;;;3.34;100.00;103887.25;5049815;28;20029;-78
2022/03/18 07:20:15;;;;;;;28.60;15.18;;;;;;;3.87;100.00;103883.59;5054829;28;20400;-80
2022/03/18 07:22:41;;;;;;;35.25;14.75;;;;;;;4.00;100.00;103879.03;5048241;28;20035;-78
2022/03/18 07:25:07;;;;;;;28.13;13.27;;;;;;;4.09;100.00;103878.13;5051386;28;20427;-78
2022/03/18 07:27:32;;;;;;;26.20;13.35;;;;;;;4.49;100.00;103878.84;5059805;28;20030;-78
2022/03/18 07:29:58;;;;;;;26.15;13.65;;;;;;;4.63;100.00;103886.06;5046726;28;20445;-78
2022/03/18 07:32:23;;;;;;;29.90;12.82;;;;;;;4.64;100.00;103877.91;5034976;28;20091;-79
2022/03/18 07:34:49;;;;;;;22.77;11.52;;;;;;;4.75;100.00;103886.84;5081229;28;20064;-79
2022/03/18 07:37:14;;;;;;;30.67;11.65;;;;;;;4.91;100.00;103889.50;5061885;28;20073;-79
2022/03/18 07:39:40;;;;;;;27.38;11.27;;;;;;;5.03;100.00;103896.66;5058017;28;20024;-78
2022/03/18 07:42:06;;;;;;;28.58;9.73;;;;;;;5.17;100.00;103891.16;5056768;28;20080;-78
2022/03/18 07:44:31;;;;;;;29.05;9.88;;;;;;;5.32;100.00;103893.75;5058410;28;20053;-80
2022/03/18 07:46:57;;;;;;;26.48;10.40;;;;;;;5.55;100.00;103889.94;5048862;28;20063;-79
2022/03/18 07:49:22;;;;;;;26.00;11.27;;;;;;;5.63;100.00;103885.34;5055414;28;20127;-77
2022/03/18 07:51:48;;;;;;;25.85;10.20;;;;;;;6.29;100.00;103900.97;5055861;28;20494;-80
2022/03/18 07:54:13;;;;;;;26.40;10.70;;;;;;;6.27;100.00;103913.72;5054185;28;20033;-80
2022/03/18 07:56:39;;;;;;;26.83;10.15;;;;;;;6.27;100.00;103908.25;5057704;28;20033;-80
2022/03/18 07:59:06;;;;;;;30.35;11.30;;;;;;;6.59;100.00;103917.84;5050531;28;20033;-80
2022/03/18 12:27:01;;;;;;;9.95;2.33;;;;;;;13.93;64.28;103980.69;5070399;28;20454;-78
2022/03/18 12:29:29;;;;;;;9.93;2.63;;;;;;;14.01;65.67;103987.72;5054365;28;20390;-79
2022/03/18 12:32:06;;;;;;;5.57;2.05;;;;;;;14.02;65.89;103975.72;5070781;28;20108;-78
2022/03/18 12:34:33;;;;;;;8.25;2.53;;;;;;;14.15;66.99;103986.16;5053468;28;20033;-79
2022/03/18 12:36:59;;;;;;;7.10;2.33;;;;;;;14.14;65.66;103987.13;5058174;28;20183;-79
2022/03/18 12:39:29;;;;;;;12.27;2.60;;;;;;;14.24;66.91;103982.09;5060698;28;20087;-79
2022/03/18 12:42:10;;;;;;;8.98;2.20;;;;;;;14.18;66.40;103985.13;5063958;28;20085;-79
2022/03/18 12:44:37;;;;;;;9.25;2.03;;;;;;;14.07;65.29;103981.94;5039390;28;20515;-79
2022/03/18 12:47:05;;;;;;;13.00;2.90;;;;;;;14.24;65.99;103983.97;5067215;28;20411;-78
2022/03/18 12:49:38;;;;;;;7.30;2.35;;;;;;;14.19;65.31;103986.03;5070204;28;20028;-78
2022/03/18 12:52:11;;;;;;;9.77;2.65;;;;;;;14.10;67.04;103976.28;5040549;28;20048;-79
2022/03/18 12:54:36;;;;;;;9.88;2.63;;;;;;;14.17;67.76;103988.84;5047772;28;20030;-79
2022/03/18 12:57:02;;;;;;;5.85;2.03;;;;;;;14.31;67.81;103988.22;5054450;28;20087;-79
2022/03/18 12:59:28;;;;;;;7.15;2.17;;;;;;;14.06;67.18;103989.31;5032455;28;20476;-79
2022/03/18 13:01:55;;;;;;;7.97;2.10;;;;;;;14.00;67.33;103992.31;5051697;28;20032;-79
2022/03/18 13:04:22;;;;;;;7.50;2.28;;;;;;;13.88;65.23;103979.09;5038412;28;20029;-79
2022/03/18 13:06:53;;;;;;;5.90;2.83;;;;;;;14.12;66.48;103983.53;5050142;28;20039;-79
2022/03/18 13:09:19;;;;;;;8.20;2.00;;;;;;;14.09;65.91;103978.16;5024477;28;20092;-79
2022/03/18 13:11:45;;;;;;;7.15;2.17;;;;;;;13.97;66.63;103979.59;5029727;28;20093;-80
2022/03/18 13:14:11;;;;;;;8.85;2.22;;;;;;;13.90;66.97;103982.66;5018563;28;20052;-78
2022/03/18 13:16:38;;;;;;;7.45;2.30;;;;;;;13.89;65.81;103972.63;5035341;28;20365;-79
2022/03/18 13:19:04;;;;;;;10.57;2.78;;;;;;;13.92;67.54;103966.97;5044004;28;20033;-79
2022/03/18 13:21:44;;;;;;;4.82;1.77;;;;;;;14.00;66.48;103964.78;5046586;28;20038;-79
2022/03/18 13:24:12;;;;;;;7.88;2.45;;;;;;;13.85;65.79;103963.59;5051952;28;20088;-80
2022/03/18 13:26:42;;;;;;;7.72;2.53;;;;;;;14.00;67.53;103961.13;5043083;28;20821;-80
2022/03/18 13:29:08;;;;;;;9.50;2.55;;;;;;;14.11;66.40;103956.94;5028659;28;20045;-79
2022/03/18 13:34:32;;;;;;;6.70;2.10;;;;;;;13.97;67.60;103953.91;5078573;28;20029;-79
2022/03/18 13:37:15;;;;;;;9.40;2.00;;;;;;;13.73;66.35;103950.34;5052170;28;20037;-79
2022/03/18 13:39:42;;;;;;;11.70;2.80;;;;;;;13.79;65.74;103941.84;5031428;28;20030;-78
2022/03/18 13:42:19;;;;;;;5.10;1.77;;;;;;;13.78;65.30;103946.44;5017278;28;20053;-79
2022/03/18 13:44:47;;;;;;;6.03;1.90;;;;;;;13.86;64.13;103951.63;5017082;28;20026;-78
2022/03/18 13:47:12;;;;;;;9.32;1.98;;;;;;;13.80;65.22;103954.63;5041369;28;20414;-79
2022/03/18 13:49:38;;;;;;;5.78;1.60;;;;;;;13.84;63.93;103945.28;5032838;28;20053;-79
2022/03/18 13:52:04;;;;;;;7.53;1.88;;;;;;;14.03;62.67;103939.84;5047464;28;20468;-78
2022/03/18 13:54:41;;;;;;;6.68;1.85;;;;;;;14.04;62.85;103947.16;5031038;28;20040;-79
2022/03/18 13:57:07;;;;;;;4.32;1.80;;;;;;;14.06;62.74;103933.31;5046722;28;20037;-79
2022/03/18 13:59:33;;;;;;;6.53;2.15;;;;;;;13.85;62.57;103935.16;5024214;28;20056;-79
2022/03/18 14:02:04;;;;;;;3.67;1.50;;;;;;;13.97;62.91;103929.13;5042300;28;20124;-79
2022/03/18 14:04:44;;;;;;;6.32;1.80;;;;;;;13.95;62.11;103933.78;5034588;28;20033;-79
2022/03/18 14:07:11;;;;;;;4.30;1.73;;;;;;;13.90;64.53;103930.34;5041460;28;20040;-79
2022/03/18 14:09:37;;;;;;;6.55;1.90;;;;;;;13.90;63.16;103930.34;5023246;28;20043;-78
2022/03/18 14:12:13;;;;;;;6.18;2.55;;;;;;;13.87;63.62;103933.22;5026964;28;20038;-79
2022/03/18 14:14:41;;;;;;;7.57;1.98;;;;;;;13.77;66.46;103930.88;5025453;28;20115;-79
2022/03/18 14:17:19;;;;;;;6.38;2.17;;;;;;;13.82;64.51;103936.16;5020369;28;20492;-79
2022/03/18 14:20:08;;;;;;;5.57;1.70;;;;;;;13.89;65.51;103932.22;5036612;28;20036;-80
2022/03/18 14:22:41;;;;;;;12.80;2.10;;;;;;;13.86;65.14;103925.94;5021157;28;20120;-79
2022/03/18 14:25:15;;;;;;;5.43;1.80;;;;;;;13.70;65.15;103922.94;5028532;28;20033;-79
2022/03/18 14:27:46;;;;;;;6.95;1.60;;;;;;;13.75;65.76;103930.03;5025631;28;20129;-80
2022/03/18 14:30:14;;;;;;;7.22;1.95;;;;;;;13.98;66.15;103926.28;5062865;28;20061;-79
2022/03/18 14:32:45;;;;;;;4.43;1.55;;;;;;;14.13;65.38;103926.56;5022134;28;20052;-79
2022/03/18 14:35:11;;;;;;;8.45;1.83;;;;;;;14.06;65.47;103927.81;5031926;28;20030;-79
2022/03/18 14:37:38;;;;;;;10.60;2.33;;;;;;;14.11;67.15;103920.22;5038660;28;20111;-79
2022/03/18 14:40:06;;;;;;;8.55;2.05;;;;;;;14.02;66.76;103928.88;5038259;28;20037;-79
2022/03/18 14:42:32;;;;;;;4.35;1.92;;;;;;;14.08;66.40;103912.09;5024505;28;20044;-79
2022/03/18 14:44:58;;;;;;;6.47;1.98;;;;;;;14.05;68.84;103915.91;5011800;28;20034;-79
2022/03/18 14:47:25;;;;;;;8.80;1.90;;;;;;;14.03;66.48;103911.41;5055439;28;20044;-79
2022/03/18 14:49:52;;;;;;;3.25;1.80;;;;;;;13.79;63.51;103920.69;5035857;28;20032;-80
2022/03/18 14:52:17;;;;;;;7.10;2.88;;;;;;;13.87;66.99;103913.94;5036083;28;20510;-79
2022/03/18 14:57:27;;;;;;;7.47;2.00;;;;;;;14.08;65.30;103918.50;5050677;28;20455;-79
2022/03/18 14:59:54;;;;;;;6.38;2.08;;;;;;;13.84;65.19;103905.81;5019349;28;20048;-79
2022/03/18 15:02:20;;;;;;;9.25;2.20;;;;;;;14.00;65.68;103901.41;5026649;28;20041;-79
2022/03/18 15:04:45;;;;;;;6.15;1.60;;;;;;;14.03;65.67;103908.66;4993467;28;20041;-79
2022/03/18 15:07:12;;;;;;;2.88;1.60;;;;;;;13.93;64.06;103899.91;5026223;28;20379;-79
2022/03/18 15:09:38;;;;;;;7.63;1.80;;;;;;;13.96;64.62;103895.16;5023447;28;20485;-79
2022/03/18 15:12:04;;;;;;;5.45;1.50;;;;;;;13.96;64.95;103892.38;5028188;28;20128;-79
2022/03/18 15:14:30;;;;;;;5.35;1.50;;;;;;;13.86;64.98;103887.38;5033099;28;20044;-79
2022/03/18 15:16:55;;;;;;;5.55;1.75;;;;;;;13.93;64.25;103895.28;5066204;28;20116;-79
2022/03/18 15:19:21;;;;;;;4.10;1.55;;;;;;;13.84;63.15;103889.28;5029868;28;20033;-78
2022/03/18 15:21:50;;;;;;;6.10;1.75;;;;;;;13.72;64.23;103891.59;5034797;28;20034;-78
2022/03/18 15:24:18;;;;;;;4.30;1.52;;;;;;;13.83;64.78;103910.44;5022759;28;20497;-78
2022/03/18 15:26:44;;;;;;;5.60;1.88;;;;;;;13.84;65.25;103906.72;5031092;28;20068;-81
2022/03/18 15:29:10;;;;;;;4.57;1.50;;;;;;;13.85;65.48;103896.59;5018823;28;20495;-79
2022/03/18 15:31:36;;;;;;;4.07;1.80;;;;;;;13.79;66.12;103903.28;5035892;28;20043;-78
2022/03/18 15:34:02;;;;;;;8.10;1.70;;;;;;;13.83;65.14;103904.03;5033890;28;20037;-78
2022/03/18 15:36:28;;;;;;;4.82;1.52;;;;;;;13.73;65.67;103901.66;5010795;28;20033;-79
2022/03/18 15:38:55;;;;;;;4.40;1.50;;;;;;;13.74;65.98;103899.81;5026939;28;20471;-78
2022/03/18 15:41:22;;;;;;;6.07;1.63;;;;;;;13.62;66.63;103894.84;5029785;28;20109;-78
2022/03/18 15:43:48;;;;;;;13.23;1.80;;;;;;;13.58;67.05;103896.84;5021522;28;20404;-79
2022/03/18 15:46:14;;;;;;;5.10;1.60;;;;;;;13.62;66.06;103895.72;5033861;28;20049;-78
2022/03/18 15:48:40;;;;;;;6.95;1.50;;;;;;;13.64;66.60;103888.28;5020642;28;20121;-78
2022/03/18 15:51:06;;;;;;;7.22;2.20;;;;;;;13.62;68.02;103886.59;5015072;28;20053;-78
2022/03/18 15:53:33;;;;;;;8.65;2.22;;;;;;;13.54;68.47;103897.91;5009843;28;20141;-78
2022/03/18 15:55:59;;;;;;;4.53;1.85;;;;;;;13.41;69.20;103895.72;5026831;28;20052;-78
2022/03/18 15:58:25;;;;;;;5.35;2.03;;;;;;;13.46;69.13;103889.09;5021849;28;20040;-78
2022/03/18 16:00:51;;;;;;;10.13;2.15;;;;;;;13.44;69.18;103899.28;5024040;28;20040;-78
2022/03/18 16:03:17;;;;;;;4.90;2.10;;;;;;;13.48;69.69;103896.34;5025964;28;20048;-77
2022/03/18 16:05:44;;;;;;;7.70;1.80;;;;;;;13.53;67.90;103902.53;5053774;28;20034;-78